Chiricana — 3EKU3 — position and weather

sailwx.info

Track history (hours):
 
Tides and Currents Weather Stations Pressure Air Temp Water Temp Dewpoint Dewpoint Depression Visibility Wind Speed Wind Dir Waves Ship Positions

Chiricana

Last reported at 2016-Dec-07 19:18 UTC. Time now 2016-Dec-07 20:19 UTC.
Position N 33°45' W 118°16'.

Length 300 m; draft 13.3 m.

Type: Ship (hazmat cat A). MMSI: 372829000.

Date/timePositionNaut miles runAvg speedWind from/ knotsBaromVisibWave heightAir tempDewpointWater temp
2016-Dec-07 19:18N 33°45' W 118°16'5 0.8
2016-Dec-07 12:34N 33°40' W 118°15'8 7.9
2016-Dec-07 11:34N 33°36' W 118°23'34312.7
2016-Dec-06 08:34N 33°50' W 125°14'1816.9
2016-Dec-06 07:30N 33°56' W 125°35'1716.6
2016-Dec-06 06:28N 34°01' W 125°55'1717.1
2016-Dec-06 05:29N 34°06' W 126°14'1617.3
2016-Dec-06 04:34N 34°10' W 126°33'1717.1
2016-Dec-06 03:34N 34°15' W 126°52'1716.9
2016-Dec-06 02:34N 34°20' W 127°12'1817.3
2016-Dec-06 01:31N 34°25' W 127°33'1917.4
2016-Dec-06 00:27N 34°30' W 127°55'  
Track history (hours):
 
Tides and Currents Weather Stations Pressure Air Temp Water Temp Dewpoint Dewpoint Depression Visibility Wind Speed Wind Dir Waves Ship Positions

Chiricana

Last reported at 2016-Dec-07 19:18 UTC. Time now 2016-Dec-07 20:19 UTC.
Position N 33°45' W 118°16'.

Length 300 m; draft 13.3 m.

Type: Ship (hazmat cat A). MMSI: 372829000.

Date/timePositionNaut miles runAvg speedWind from/ knotsBaromVisibWave heightAir tempDewpointWater temp
2016-Dec-07 19:18N 33°45' W 118°16'5 0.8
2016-Dec-07 12:34N 33°40' W 118°15'8 7.9
2016-Dec-07 11:34N 33°36' W 118°23'34312.7
2016-Dec-06 08:34N 33°50' W 125°14'1816.9
2016-Dec-06 07:30N 33°56' W 125°35'1716.6
2016-Dec-06 06:28N 34°01' W 125°55'1717.1
2016-Dec-06 05:29N 34°06' W 126°14'1617.3
2016-Dec-06 04:34N 34°10' W 126°33'1717.1
2016-Dec-06 03:34N 34°15' W 126°52'1716.9
2016-Dec-06 02:34N 34°20' W 127°12'1817.3
2016-Dec-06 01:31N 34°25' W 127°33'1917.4
2016-Dec-06 00:27N 34°30' W 127°55'  

Dump ship's entire track history